createdAt,value
2022-10-19T00:00:51.116Z,91.44
2022-10-19T00:01:51.340Z,91.35
2022-10-19T00:02:51.169Z,91.59
2022-10-19T00:03:50.969Z,91.69
2022-10-19T00:04:51.080Z,91.59
2022-10-19T00:05:51.205Z,91.90
2022-10-19T00:06:51.137Z,92.21
2022-10-19T00:07:51.133Z,92.21
2022-10-19T00:08:51.118Z,92.41
2022-10-19T00:09:51.048Z,92.51
2022-10-19T00:10:51.127Z,92.41
2022-10-19T00:11:51.024Z,92.51
2022-10-19T00:12:51.031Z,92.31
2022-10-19T00:13:50.913Z,92.00
2022-10-19T00:14:50.973Z,92.00
2022-10-19T00:15:51.010Z,91.69
2022-10-19T00:16:50.987Z,91.80
2022-10-19T00:17:51.042Z,92.10
2022-10-19T00:18:50.789Z,92.00
2022-10-19T00:19:50.919Z,91.90
2022-10-19T00:20:50.837Z,91.80
2022-10-19T00:22:50.769Z,91.69
2022-10-19T00:23:51.046Z,91.59
2022-10-19T00:24:50.794Z,91.59
2022-10-19T00:25:51.007Z,91.80
2022-10-19T00:26:50.830Z,91.74
2022-10-19T00:27:51.028Z,91.94
2022-10-19T00:28:50.737Z,92.14
2022-10-19T00:29:50.752Z,91.94
2022-10-19T00:30:50.698Z,91.84
2022-10-19T00:31:50.839Z,92.04
2022-10-19T00:32:50.884Z,92.25
2022-10-19T00:33:50.783Z,92.46
2022-10-19T00:34:50.883Z,92.55
2022-10-19T00:35:50.718Z,92.66
2022-10-19T00:36:50.812Z,92.97
2022-10-19T00:37:50.681Z,93.27
2022-10-19T00:38:50.733Z,93.27
2022-10-19T00:40:50.648Z,92.97
2022-10-19T00:41:50.528Z,92.86
2022-10-19T00:42:50.707Z,92.80
2022-10-19T00:43:50.683Z,92.80
2022-10-19T00:44:50.470Z,92.50
2022-10-19T00:45:50.885Z,92.29
2022-10-19T00:46:50.567Z,92.40
2022-10-19T00:47:54.536Z,92.40
2022-10-19T00:48:51.323Z,92.50
2022-10-19T00:49:50.507Z,92.19
2022-10-19T00:50:50.441Z,91.88
2022-10-19T00:51:50.727Z,91.78
2022-10-19T00:52:50.403Z,91.88
2022-10-19T00:53:50.643Z,92.19
2022-10-19T00:54:50.566Z,92.29
2022-10-19T00:55:50.317Z,92.70
2022-10-19T00:56:50.519Z,93.01
2022-10-19T00:58:50.415Z,92.80
2022-10-19T00:59:50.753Z,92.70
2022-10-19T01:00:50.386Z,92.60
2022-10-19T01:01:50.844Z,92.60
2022-10-19T01:02:50.616Z,92.40
2022-10-19T01:03:50.398Z,92.60
2022-10-19T01:04:50.477Z,92.40
2022-10-19T01:05:50.752Z,92.40
2022-10-19T01:07:50.360Z,92.80
2022-10-19T01:08:50.209Z,92.70
2022-10-19T01:09:50.424Z,92.70
2022-10-19T01:10:50.226Z,93.05
2022-10-19T01:11:50.274Z,92.95
2022-10-19T01:12:50.274Z,92.95
2022-10-19T01:13:50.746Z,92.91
2022-10-19T01:14:50.220Z,92.74
2022-10-19T01:15:50.339Z,92.19
2022-10-19T01:16:50.059Z,92.19
2022-10-19T01:17:50.221Z,92.19
2022-10-19T01:18:50.118Z,92.50
2022-10-19T01:19:50.382Z,92.60
2022-10-19T01:20:50.045Z,92.60
2022-10-19T01:21:49.995Z,92.29
2022-10-19T01:22:50.018Z,91.88
2022-10-19T01:23:50.127Z,91.78
2022-10-19T01:24:50.260Z,91.88
2022-10-19T01:25:50.077Z,91.57
2022-10-19T01:26:49.968Z,91.57
2022-10-19T01:27:49.935Z,91.88
2022-10-19T01:28:50.005Z,91.78
2022-10-19T01:29:49.930Z,92.23
2022-10-19T01:30:50.043Z,92.23
2022-10-19T01:31:49.907Z,92.64
2022-10-19T01:32:49.896Z,92.74
2022-10-19T01:33:49.929Z,92.64
2022-10-19T01:34:49.977Z,92.74
2022-10-19T01:35:49.892Z,92.85
2022-10-19T01:36:49.855Z,92.74
2022-10-19T01:37:49.888Z,92.54
2022-10-19T01:38:49.826Z,92.54
2022-10-19T01:39:50.034Z,92.44
2022-10-19T01:40:50.117Z,92.44
2022-10-19T01:41:49.896Z,92.23
2022-10-19T01:42:49.793Z,92.44
2022-10-19T01:43:49.978Z,92.48
2022-10-19T01:44:49.706Z,92.48
2022-10-19T01:45:49.747Z,92.38
2022-10-19T01:46:49.766Z,92.48
2022-10-19T01:47:49.817Z,92.27
2022-10-19T01:48:49.778Z,92.48
2022-10-19T01:49:49.758Z,92.58
2022-10-19T01:50:49.598Z,92.69
2022-10-19T01:51:49.681Z,92.69
2022-10-19T01:52:49.686Z,92.79
2022-10-19T01:53:49.602Z,92.38
2022-10-19T01:54:49.601Z,92.17
2022-10-19T01:55:49.762Z,92.07
2022-10-19T01:56:49.768Z,92.17
2022-10-19T01:57:49.585Z,91.97
2022-10-19T01:58:49.737Z,92.07
2022-10-19T01:59:49.725Z,92.38
2022-10-19T02:00:49.718Z,92.69
2022-10-19T02:01:49.436Z,92.89
2022-10-19T02:02:49.462Z,92.89
2022-10-19T02:03:49.572Z,92.99
2022-10-19T02:04:49.533Z,92.69
2022-10-19T02:05:49.435Z,92.17
2022-10-19T02:06:49.428Z,92.48
2022-10-19T02:07:49.415Z,92.48
2022-10-19T02:08:49.469Z,92.63
2022-10-19T02:09:49.328Z,92.52
2022-10-19T02:10:49.549Z,92.63
2022-10-19T02:11:50.494Z,92.63
2022-10-19T02:12:49.316Z,92.93
2022-10-19T02:13:49.422Z,93.14
2022-10-19T02:14:49.290Z,93.04
2022-10-19T02:15:49.332Z,92.93
2022-10-19T02:16:49.313Z,93.04
2022-10-19T02:17:49.331Z,93.24
2022-10-19T02:18:49.403Z,93.24
2022-10-19T02:19:49.256Z,93.14
2022-10-19T02:20:49.297Z,93.24
2022-10-19T02:21:49.235Z,93.04
2022-10-19T02:22:49.179Z,92.73
2022-10-19T02:23:51.903Z,93.04
2022-10-19T02:24:49.331Z,93.14
2022-10-19T02:25:49.136Z,93.04
2022-10-19T02:26:49.236Z,93.04
2022-10-19T02:27:49.352Z,93.14
2022-10-19T02:28:49.221Z,93.24
2022-10-19T02:29:49.522Z,93.24
2022-10-19T02:30:49.154Z,93.04
2022-10-19T02:31:49.389Z,93.14
2022-10-19T02:32:49.206Z,93.35
2022-10-19T02:33:49.173Z,93.76
2022-10-19T02:34:49.111Z,93.76
2022-10-19T02:35:49.066Z,93.65
2022-10-19T02:36:49.072Z,93.55
2022-10-19T02:37:49.188Z,93.35
2022-10-19T02:38:49.130Z,93.39
2022-10-19T02:39:49.031Z,93.04
2022-10-19T02:40:49.141Z,93.14
2022-10-19T02:41:48.971Z,93.29
2022-10-19T02:42:48.939Z,93.39
2022-10-19T02:43:48.908Z,93.29
2022-10-19T02:44:48.972Z,93.59
2022-10-19T02:45:48.979Z,93.59
2022-10-19T02:46:49.120Z,93.29
2022-10-19T02:47:48.944Z,93.18
2022-10-19T02:48:48.881Z,93.18
2022-10-19T02:49:48.803Z,93.08
2022-10-19T02:50:49.216Z,93.18
2022-10-19T02:51:48.895Z,93.08
2022-10-19T02:52:48.922Z,92.87
2022-10-19T02:53:48.864Z,92.77
2022-10-19T02:54:49.601Z,92.46
2022-10-19T02:55:48.919Z,92.36
2022-10-19T02:56:48.829Z,92.16
2022-10-19T02:57:48.887Z,92.16
2022-10-19T02:58:48.755Z,92.25
2022-10-19T02:59:48.810Z,92.36
2022-10-19T03:00:48.811Z,92.16
2022-10-19T03:01:48.822Z,92.25
2022-10-19T03:02:48.842Z,92.16
2022-10-19T03:03:48.800Z,92.16
2022-10-19T03:04:48.687Z,92.25
2022-10-19T03:05:48.698Z,92.36
2022-10-19T03:06:48.703Z,92.46
2022-10-19T03:07:48.668Z,92.61
2022-10-19T03:08:48.758Z,92.71
2022-10-19T03:09:48.709Z,92.92
2022-10-19T03:10:48.786Z,92.82
2022-10-19T03:11:48.577Z,92.71
2022-10-19T03:12:48.718Z,92.71
2022-10-19T03:14:48.600Z,92.61
2022-10-19T03:15:48.536Z,92.20
2022-10-19T03:16:48.522Z,92.10
2022-10-19T03:17:48.530Z,92.10
2022-10-19T03:18:48.732Z,92.10
2022-10-19T03:19:48.697Z,92.10
2022-10-19T03:20:48.550Z,92.20
2022-10-19T03:21:48.515Z,92.20
2022-10-19T03:22:48.791Z,92.30
2022-10-19T03:23:48.453Z,92.20
2022-10-19T03:24:48.491Z,92.50
2022-10-19T03:25:48.387Z,92.61
2022-10-19T03:26:48.400Z,92.50
2022-10-19T03:27:48.498Z,92.40
2022-10-19T03:28:48.416Z,92.30
2022-10-19T03:29:48.420Z,92.30
2022-10-19T03:30:48.478Z,92.10
2022-10-19T03:31:48.426Z,91.99
2022-10-19T03:32:48.571Z,91.89
2022-10-19T03:33:48.349Z,92.10
2022-10-19T03:34:48.340Z,92.30
2022-10-19T03:35:48.259Z,92.61
2022-10-19T03:36:48.358Z,92.71
2022-10-19T03:37:48.229Z,92.71
2022-10-19T03:38:48.272Z,92.92
2022-10-19T03:39:48.182Z,93.02
2022-10-19T03:40:48.245Z,93.06
2022-10-19T03:41:48.286Z,92.96
2022-10-19T03:42:48.208Z,92.86
2022-10-19T03:43:48.255Z,92.76
2022-10-19T03:44:48.217Z,92.86
2022-10-19T03:45:48.183Z,93.16
2022-10-19T03:46:48.081Z,93.06
2022-10-19T03:47:48.186Z,93.16
2022-10-19T03:48:48.070Z,92.76
2022-10-19T03:49:48.185Z,92.65
2022-10-19T03:50:48.229Z,92.76
2022-10-19T03:51:48.210Z,92.96
2022-10-19T03:52:48.153Z,93.06
2022-10-19T03:53:48.226Z,93.27
2022-10-19T03:54:48.051Z,93.48
2022-10-19T03:55:48.167Z,93.48
2022-10-19T03:56:48.095Z,93.27
2022-10-19T03:57:48.054Z,93.06
2022-10-19T03:58:48.078Z,92.96
2022-10-19T03:59:48.108Z,93.16
2022-10-19T04:00:48.078Z,93.48
2022-10-19T04:01:47.898Z,93.79
2022-10-19T04:02:47.944Z,93.48
2022-10-19T04:03:47.842Z,93.48
2022-10-19T04:04:48.011Z,93.68
2022-10-19T04:05:47.951Z,93.68
2022-10-19T04:06:47.857Z,93.93
2022-10-19T04:07:47.989Z,94.09
2022-10-19T04:08:47.878Z,94.09
2022-10-19T04:09:47.843Z,93.88
2022-10-19T04:10:47.903Z,93.58
2022-10-19T04:11:47.771Z,93.58
2022-10-19T04:12:53.013Z,93.79
2022-10-19T04:13:48.764Z,94.20
2022-10-19T04:14:56.903Z,94.24
2022-10-19T04:15:49.005Z,94.34
2022-10-19T04:16:47.752Z,94.55
2022-10-19T04:17:48.709Z,94.76
2022-10-19T04:18:47.868Z,94.76
2022-10-19T04:19:47.740Z,94.65
2022-10-19T04:20:47.794Z,94.45
2022-10-19T04:21:47.703Z,94.55
2022-10-19T04:22:48.002Z,94.60
2022-10-19T04:23:47.741Z,94.30
2022-10-19T04:24:47.592Z,94.40
2022-10-19T04:25:47.804Z,94.40
2022-10-19T04:26:47.705Z,94.40
2022-10-19T04:27:47.609Z,94.30
2022-10-19T04:28:47.790Z,93.99
2022-10-19T04:29:47.628Z,93.88
2022-10-19T04:30:47.718Z,94.51
2022-10-19T04:31:47.637Z,94.81
2022-10-19T04:32:47.682Z,95.02
2022-10-19T04:33:47.647Z,94.60
2022-10-19T04:34:47.639Z,94.51
2022-10-19T04:35:47.577Z,94.51
2022-10-19T04:36:47.667Z,94.51
2022-10-19T04:37:47.834Z,94.60
2022-10-19T04:38:47.713Z,94.92
2022-10-19T04:39:47.413Z,95.02
2022-10-19T04:40:47.503Z,95.02
2022-10-19T04:41:47.444Z,95.02
2022-10-19T04:42:47.565Z,94.92
2022-10-19T04:43:47.581Z,94.81
2022-10-19T04:44:47.818Z,94.71
2022-10-19T04:45:47.469Z,94.71
2022-10-19T04:46:47.712Z,94.60
2022-10-19T04:47:47.486Z,94.81
2022-10-19T04:48:47.428Z,95.12
2022-10-19T04:49:47.786Z,95.23
2022-10-19T04:50:47.268Z,95.64
2022-10-19T04:51:47.248Z,95.84
2022-10-19T04:52:47.488Z,95.95
2022-10-19T04:53:47.544Z,96.15
2022-10-19T04:54:47.308Z,96.15
2022-10-19T04:55:47.261Z,95.95
2022-10-19T04:56:47.321Z,95.84
2022-10-19T04:57:47.343Z,95.64
2022-10-19T04:58:47.197Z,95.53
2022-10-19T04:59:47.140Z,96.05
2022-10-19T05:00:47.173Z,96.36
2022-10-19T05:01:47.531Z,96.36
2022-10-19T05:02:47.350Z,96.46
2022-10-19T05:03:47.178Z,96.25
2022-10-19T05:04:47.527Z,96.15
2022-10-19T05:05:47.048Z,96.05
2022-10-19T05:06:47.203Z,95.95
2022-10-19T05:07:47.110Z,95.70
2022-10-19T05:08:47.026Z,95.80
2022-10-19T05:09:46.976Z,95.95
2022-10-19T05:10:47.840Z,96.15
2022-10-19T05:11:47.020Z,96.05
2022-10-19T05:12:47.104Z,96.25
2022-10-19T05:13:47.112Z,96.36
2022-10-19T05:14:47.105Z,96.36
2022-10-19T05:15:46.995Z,96.25
2022-10-19T05:16:46.904Z,96.15
2022-10-19T05:17:46.898Z,96.36
2022-10-19T05:18:46.961Z,96.77
2022-10-19T05:19:47.077Z,96.88
2022-10-19T05:20:46.922Z,96.97
2022-10-19T05:21:46.856Z,96.88
2022-10-19T05:22:46.979Z,96.77
2022-10-19T05:23:47.030Z,96.67
2022-10-19T05:24:46.861Z,96.56
2022-10-19T05:25:46.836Z,96.77
2022-10-19T05:26:46.870Z,96.97
2022-10-19T05:27:46.865Z,97.08
2022-10-19T05:28:46.839Z,97.08
2022-10-19T05:29:46.810Z,97.18
2022-10-19T05:30:49.034Z,97.18
2022-10-19T05:31:48.725Z,97.08
2022-10-19T05:32:46.953Z,96.97
2022-10-19T05:33:46.854Z,96.77
2022-10-19T05:34:46.744Z,96.67
2022-10-19T05:35:46.911Z,96.67
2022-10-19T05:36:46.798Z,96.67
2022-10-19T05:37:46.791Z,96.56
2022-10-19T05:38:46.684Z,96.46
2022-10-19T05:39:47.893Z,96.46
2022-10-19T05:40:50.371Z,96.21
2022-10-19T05:41:47.643Z,96.36
2022-10-19T05:42:46.986Z,96.15
2022-10-19T05:43:46.993Z,96.05
2022-10-19T05:44:46.740Z,95.84
2022-10-19T05:45:46.666Z,95.74
2022-10-19T05:46:46.596Z,95.53
2022-10-19T05:47:46.582Z,95.53
2022-10-19T05:48:46.712Z,95.53
2022-10-19T05:49:46.461Z,95.43
2022-10-19T05:50:46.571Z,95.64
2022-10-19T05:51:46.539Z,95.53
2022-10-19T05:52:46.473Z,95.33
2022-10-19T05:53:46.453Z,95.43
2022-10-19T05:54:46.734Z,95.53
2022-10-19T05:55:46.554Z,95.53
2022-10-19T05:56:46.485Z,95.64
2022-10-19T05:57:46.380Z,95.64
2022-10-19T05:58:46.472Z,95.84
2022-10-19T05:59:46.419Z,96.15
2022-10-19T06:00:46.688Z,96.15
2022-10-19T06:01:46.702Z,96.25
2022-10-19T06:02:46.314Z,96.21
2022-10-19T06:03:46.328Z,96.42
2022-10-19T06:04:46.246Z,96.62
2022-10-19T06:05:46.361Z,96.72
2022-10-19T06:06:46.202Z,96.62
2022-10-19T06:07:46.335Z,96.31
2022-10-19T06:08:46.382Z,95.80
2022-10-19T06:09:46.491Z,95.59
2022-10-19T06:10:46.330Z,95.80
2022-10-19T06:11:46.203Z,95.70
2022-10-19T06:12:46.389Z,95.80
2022-10-19T06:13:46.171Z,95.80
2022-10-19T06:15:46.248Z,96.42
2022-10-19T06:16:46.373Z,96.42
2022-10-19T06:17:47.689Z,96.42
2022-10-19T06:18:49.273Z,96.31
2022-10-19T06:19:47.949Z,96.00
2022-10-19T06:20:48.542Z,96.11
2022-10-19T06:21:46.903Z,95.86
2022-10-19T06:22:48.438Z,95.90
2022-10-19T06:23:46.959Z,95.86
2022-10-19T06:24:47.876Z,95.96
2022-10-19T06:25:46.225Z,95.65
2022-10-19T06:26:46.913Z,95.45
2022-10-19T06:27:46.294Z,95.45
2022-10-19T06:28:46.141Z,95.65
2022-10-19T06:29:46.468Z,95.24
2022-10-19T06:30:46.146Z,95.14
2022-10-19T06:31:46.034Z,95.24
2022-10-19T06:32:46.271Z,95.14
2022-10-19T06:33:48.643Z,95.03
2022-10-19T06:34:45.919Z,95.14
2022-10-19T06:35:46.022Z,95.24
2022-10-19T06:36:45.903Z,95.14
2022-10-19T06:37:46.093Z,95.14
2022-10-19T06:38:45.927Z,95.24
2022-10-19T06:39:46.106Z,95.24
2022-10-19T06:40:45.924Z,95.24
2022-10-19T06:41:46.007Z,95.24
2022-10-19T06:42:45.830Z,95.14
2022-10-19T06:43:45.872Z,95.14
2022-10-19T06:44:45.795Z,95.03
2022-10-19T06:45:46.062Z,95.14
2022-10-19T06:46:46.050Z,95.03
2022-10-19T06:47:48.903Z,95.03
2022-10-19T06:48:45.836Z,95.14
2022-10-19T06:49:46.009Z,95.03
2022-10-19T06:50:46.172Z,95.03
2022-10-19T06:51:46.001Z,95.03
2022-10-19T06:52:46.400Z,95.30
2022-10-19T06:53:45.843Z,95.30
2022-10-19T06:54:45.902Z,95.30
2022-10-19T06:55:45.857Z,95.20
2022-10-19T06:56:45.786Z,95.40
2022-10-19T06:57:45.915Z,95.50
2022-10-19T06:58:46.036Z,95.75
2022-10-19T06:59:48.086Z,95.81
2022-10-19T07:00:47.145Z,95.92
2022-10-19T07:01:46.033Z,95.92
2022-10-19T07:02:45.672Z,96.02
2022-10-19T07:03:47.209Z,96.12
2022-10-19T07:04:45.706Z,96.02
2022-10-19T07:05:46.196Z,96.02
2022-10-19T07:06:46.272Z,96.02
2022-10-19T07:07:45.717Z,95.81
2022-10-19T07:08:46.418Z,95.81
2022-10-19T07:09:46.838Z,95.81
2022-10-19T07:10:46.163Z,95.71
2022-10-19T07:11:46.356Z,95.81
2022-10-19T07:12:46.040Z,95.92
2022-10-19T07:13:46.708Z,95.92
2022-10-19T07:14:46.465Z,95.92
2022-10-19T07:15:46.834Z,95.92
2022-10-19T07:16:47.306Z,95.92
2022-10-19T07:17:47.039Z,95.92
2022-10-19T07:18:48.175Z,95.81
2022-10-19T07:19:49.880Z,95.77
2022-10-19T07:20:48.717Z,95.77
2022-10-19T07:21:46.747Z,95.77
2022-10-19T07:22:48.722Z,95.77
2022-10-19T07:23:47.700Z,95.77
2022-10-19T07:24:51.754Z,95.97
2022-10-19T07:25:48.788Z,96.08
2022-10-19T07:26:47.250Z,96.18
2022-10-19T07:27:47.924Z,96.08
2022-10-19T07:28:48.519Z,96.08
2022-10-19T07:29:47.531Z,96.08
2022-10-19T07:30:48.683Z,96.08
2022-10-19T07:31:49.203Z,96.08
2022-10-19T07:32:47.300Z,95.97
2022-10-19T07:33:49.462Z,95.97
2022-10-19T07:34:50.663Z,95.87
2022-10-19T07:35:46.777Z,95.72
2022-10-19T07:36:47.294Z,96.03
2022-10-19T07:37:47.950Z,96.14
2022-10-19T07:38:46.730Z,96.14
2022-10-19T07:39:45.292Z,96.14
2022-10-19T07:40:47.744Z,96.23
2022-10-19T07:41:45.931Z,96.23
2022-10-19T07:42:48.127Z,96.34
2022-10-19T07:43:47.852Z,96.23
2022-10-19T07:44:45.353Z,96.23
2022-10-19T07:45:45.969Z,96.14
2022-10-19T07:46:48.125Z,95.93
2022-10-19T07:47:45.256Z,95.57
2022-10-19T07:48:46.022Z,95.37
2022-10-19T07:49:47.663Z,95.27
2022-10-19T07:50:45.643Z,94.85
2022-10-19T07:51:46.051Z,94.85
2022-10-19T07:52:48.023Z,94.85
2022-10-19T07:53:47.547Z,94.76
2022-10-19T07:54:47.455Z,94.55
2022-10-19T07:55:46.076Z,94.30
2022-10-19T07:56:46.321Z,94.10
2022-10-19T07:57:48.380Z,93.99
2022-10-19T07:58:46.036Z,93.89
2022-10-19T07:59:47.296Z,93.99
2022-10-19T08:00:46.953Z,93.99
2022-10-19T08:01:46.417Z,93.99
2022-10-19T08:02:57.786Z,93.79
2022-10-19T08:05:00.319Z,93.74
2022-10-19T08:05:47.693Z,93.85
2022-10-19T08:06:47.677Z,93.85
2022-10-19T08:07:46.645Z,93.95
2022-10-19T08:08:44.996Z,93.85
2022-10-19T08:09:53.339Z,93.85
2022-10-19T08:10:47.964Z,93.64
2022-10-19T08:11:45.753Z,93.64
2022-10-19T08:12:45.726Z,93.74
2022-10-19T08:13:45.326Z,93.80
2022-10-19T08:14:46.451Z,94.11
2022-10-19T08:15:46.182Z,93.90
2022-10-19T08:16:50.789Z,93.39
2022-10-19T08:17:46.594Z,93.29
2022-10-19T08:19:08.331Z,93.29
2022-10-19T08:19:47.256Z,92.98
2022-10-19T08:20:46.696Z,92.88
2022-10-19T08:21:47.293Z,92.98
2022-10-19T08:22:45.954Z,92.98
2022-10-19T08:23:45.894Z,92.88
2022-10-19T08:24:46.351Z,92.53
2022-10-19T08:25:45.466Z,92.43
2022-10-19T08:26:46.962Z,92.32
2022-10-19T08:27:45.759Z,92.22
2022-10-19T08:28:49.448Z,92.12
2022-10-19T08:29:46.253Z,92.32
2022-10-19T08:30:44.902Z,92.22
2022-10-19T08:31:45.772Z,91.91
2022-10-19T08:32:46.025Z,91.77
2022-10-19T08:33:46.885Z,91.77
2022-10-19T08:34:45.772Z,91.87
2022-10-19T08:35:45.860Z,91.67
2022-10-19T08:36:45.369Z,91.36
2022-10-19T08:37:45.766Z,91.05
2022-10-19T08:38:44.674Z,90.64
2022-10-19T08:39:44.862Z,90.64
2022-10-19T08:40:46.303Z,90.54
2022-10-19T08:42:44.850Z,90.23
2022-10-19T08:43:44.966Z,90.34
2022-10-19T08:44:45.733Z,90.30
2022-10-19T08:45:44.686Z,90.19
2022-10-19T08:46:44.580Z,90.39
2022-10-19T08:47:45.196Z,90.19
2022-10-19T08:48:44.486Z,89.98
2022-10-19T08:49:45.677Z,89.98
2022-10-19T08:50:44.225Z,89.78
2022-10-19T08:51:46.585Z,89.17
2022-10-19T08:52:46.656Z,88.31
2022-10-19T08:53:44.588Z,87.70
2022-10-19T08:55:45.749Z,88.41
2022-10-19T08:56:52.173Z,87.90
2022-10-19T08:57:45.440Z,87.96
2022-10-19T08:58:44.635Z,88.17
2022-10-19T08:59:44.972Z,88.26
2022-10-19T09:00:45.025Z,87.96
2022-10-19T09:01:44.490Z,88.26
2022-10-19T09:02:44.762Z,87.24
2022-10-19T09:03:55.032Z,87.51
2022-10-19T09:04:45.211Z,87.20
2022-10-19T09:05:44.132Z,87.10
2022-10-19T09:06:44.514Z,86.90
2022-10-19T09:07:44.671Z,86.49
2022-10-19T09:08:44.135Z,86.24
2022-10-19T09:10:44.338Z,85.53
2022-10-19T09:11:44.446Z,85.22
2022-10-19T09:12:44.317Z,85.02
2022-10-19T09:14:04.320Z,84.88
2022-10-19T09:14:47.191Z,84.98
2022-10-19T09:15:44.968Z,84.47
2022-10-19T09:16:44.613Z,84.26
2022-10-19T09:17:44.390Z,83.75
2022-10-19T09:18:44.596Z,83.61
2022-10-19T09:19:44.740Z,82.89
2022-10-19T09:20:44.619Z,83.10
2022-10-19T09:21:47.858Z,82.49
2022-10-19T09:22:44.164Z,82.59
2022-10-19T09:23:44.772Z,81.57
2022-10-19T09:24:44.154Z,81.43
2022-10-19T09:25:44.570Z,80.71
2022-10-19T09:26:43.941Z,80.51
2022-10-19T09:27:44.291Z,80.41
2022-10-19T09:28:45.859Z,80.61
2022-10-19T09:29:44.603Z,81.32
2022-10-19T09:30:43.950Z,80.82
2022-10-19T09:31:43.926Z,80.51
2022-10-19T09:32:45.318Z,79.39
2022-10-19T09:33:44.711Z,78.67
2022-10-19T09:34:44.461Z,78.43
2022-10-19T09:35:44.382Z,78.94
2022-10-19T09:36:50.547Z,78.43
2022-10-19T09:37:45.814Z,77.48
2022-10-19T09:38:44.764Z,76.62
2022-10-19T09:39:52.399Z,76.22
2022-10-19T09:40:44.968Z,74.96
2022-10-19T09:41:44.916Z,75.06
2022-10-19T09:42:51.188Z,76.08
2022-10-19T09:43:48.804Z,75.27
2022-10-19T09:44:44.623Z,75.06
2022-10-19T09:45:50.469Z,74.72
2022-10-19T09:46:47.123Z,73.80
2022-10-19T09:47:47.986Z,72.96
2022-10-19T09:48:45.026Z,73.57
2022-10-19T09:49:45.174Z,72.21
2022-10-19T09:50:43.822Z,70.25
2022-10-19T09:51:44.694Z,70.35
2022-10-19T09:52:46.382Z,69.13
2022-10-19T09:53:44.967Z,69.16
2022-10-19T09:54:43.458Z,70.18
2022-10-19T09:55:44.450Z,70.89
2022-10-19T09:56:43.820Z,70.58
2022-10-19T09:57:44.170Z,69.40
2022-10-19T09:58:46.237Z,69.40
2022-10-19T09:59:45.430Z,69.70
2022-10-19T10:00:43.268Z,70.31
2022-10-19T10:01:45.140Z,70.62
2022-10-19T10:03:45.771Z,71.09
2022-10-19T10:04:47.596Z,70.89
2022-10-19T10:05:46.370Z,70.48
2022-10-19T10:06:46.859Z,70.07
2022-10-19T10:07:45.741Z,69.06
2022-10-19T10:08:45.382Z,69.06
2022-10-19T10:09:44.925Z,68.55
2022-10-19T10:10:45.519Z,69.53
2022-10-19T10:11:43.366Z,69.84
2022-10-19T10:12:45.300Z,69.13
2022-10-19T10:13:43.635Z,68.85
2022-10-19T10:14:46.144Z,68.75
2022-10-19T10:15:45.029Z,68.14
2022-10-19T10:16:44.518Z,68.27
2022-10-19T10:17:43.633Z,68.27
2022-10-19T10:18:44.270Z,69.09
2022-10-19T10:19:45.989Z,69.32
2022-10-19T10:20:44.121Z,70.41
2022-10-19T10:21:44.372Z,70.41
2022-10-19T10:22:43.645Z,70.41
2022-10-19T10:23:44.676Z,70.21
2022-10-19T10:24:47.497Z,68.99
2022-10-19T10:25:45.035Z,69.57
2022-10-19T10:26:49.850Z,68.65
2022-10-19T10:27:44.237Z,68.65
2022-10-19T10:28:45.853Z,68.35
2022-10-19T10:29:43.035Z,68.96
2022-10-19T10:30:44.378Z,69.16
2022-10-19T10:31:44.189Z,69.06
2022-10-19T10:32:48.054Z,69.26
2022-10-19T10:39:51.302Z,68.04
2022-10-19T10:40:54.463Z,67.43
2022-10-19T10:41:50.649Z,68.75
2022-10-19T10:42:51.204Z,68.07
2022-10-19T10:43:52.814Z,68.79
2022-10-19T10:44:51.104Z,68.79
2022-10-19T10:45:50.954Z,68.79
2022-10-19T10:46:51.982Z,68.79
2022-10-19T10:47:52.061Z,69.90
2022-10-19T10:48:53.384Z,69.70
2022-10-19T10:49:50.557Z,69.70
2022-10-19T10:50:50.848Z,69.40
2022-10-19T10:51:53.140Z,68.79
2022-10-19T10:52:51.412Z,68.58
2022-10-19T10:53:50.893Z,68.79
2022-10-19T10:54:53.471Z,69.19
2022-10-19T10:55:50.422Z,69.40
2022-10-19T10:56:51.718Z,69.49
2022-10-19T10:57:50.536Z,69.90
2022-10-19T10:58:50.334Z,69.67
2022-10-19T10:59:59.005Z,69.46
2022-10-19T11:00:50.459Z,69.36
2022-10-19T11:01:50.454Z,69.06
2022-10-19T11:02:51.451Z,68.21
2022-10-19T11:03:50.496Z,68.92
2022-10-19T11:04:54.026Z,68.85
2022-10-19T11:05:53.560Z,68.44
2022-10-19T11:06:50.428Z,68.85
2022-10-19T11:07:50.672Z,68.96
2022-10-19T11:08:51.316Z,69.16
2022-10-19T11:09:55.389Z,69.36
2022-10-19T11:10:51.524Z,68.75
2022-10-19T11:11:51.417Z,68.48
2022-10-19T11:12:52.371Z,69.19
2022-10-19T11:13:50.710Z,68.55
2022-10-19T11:14:50.305Z,69.16
2022-10-19T11:15:50.257Z,69.06
2022-10-19T11:16:50.949Z,68.99
2022-10-19T11:17:51.952Z,68.55
2022-10-19T11:18:55.528Z,69.06
2022-10-19T11:19:50.173Z,68.35
2022-10-19T11:20:50.705Z,68.79
2022-10-19T11:21:52.215Z,69.19
2022-10-19T11:22:50.513Z,69.40
2022-10-19T11:23:51.849Z,68.85
2022-10-19T11:24:50.221Z,69.26
2022-10-19T11:25:50.670Z,69.06
2022-10-19T11:26:49.843Z,69.13
2022-10-19T11:27:52.317Z,68.62
2022-10-19T11:28:50.811Z,68.92
2022-10-19T11:29:50.432Z,68.21
2022-10-19T11:30:50.745Z,68.32
2022-10-19T11:31:51.265Z,68.01
2022-10-19T11:32:51.085Z,68.52
2022-10-19T11:33:50.784Z,68.41
2022-10-19T11:34:53.253Z,68.01
2022-10-19T11:35:55.553Z,67.50
2022-10-19T11:36:50.770Z,67.83
2022-10-19T11:38:17.587Z,67.94
2022-10-19T11:38:52.668Z,68.75
2022-10-19T11:39:49.655Z,68.55
2022-10-19T11:41:13.290Z,68.92
2022-10-19T11:41:51.342Z,68.01
2022-10-19T11:42:50.474Z,67.57
2022-10-19T11:43:50.455Z,67.16
2022-10-19T11:44:50.089Z,67.06
2022-10-19T11:45:49.719Z,67.06
2022-10-19T11:46:49.422Z,67.30
2022-10-19T11:47:52.736Z,68.01
2022-10-19T11:48:54.173Z,68.69
2022-10-19T11:49:50.038Z,68.05
2022-10-19T11:50:54.219Z,67.33
2022-10-19T11:51:54.199Z,67.20
2022-10-19T11:52:52.830Z,67.07
2022-10-19T11:53:50.966Z,66.19
2022-10-19T11:54:54.173Z,67.00
2022-10-19T11:55:49.799Z,66.80
2022-10-19T11:57:08.300Z,66.80
2022-10-19T11:57:51.248Z,66.39
2022-10-19T11:58:51.873Z,66.39
2022-10-19T11:59:53.387Z,67.00
2022-10-19T12:00:52.545Z,66.69
2022-10-19T12:01:50.663Z,66.52
2022-10-19T12:02:50.157Z,66.93
2022-10-19T12:03:53.325Z,67.20
2022-10-19T12:04:51.064Z,66.90
2022-10-19T12:05:50.835Z,66.46
2022-10-19T12:06:50.385Z,65.65
2022-10-19T12:07:50.878Z,65.04
2022-10-19T12:08:52.417Z,65.85
2022-10-19T12:09:52.528Z,64.43
2022-10-19T12:10:51.435Z,63.92
2022-10-19T12:11:50.129Z,64.23
2022-10-19T12:12:53.078Z,65.14
2022-10-19T12:13:49.523Z,65.14
2022-10-19T12:14:53.986Z,64.64
2022-10-19T12:15:53.969Z,64.91
2022-10-19T12:16:49.367Z,64.81
2022-10-19T12:17:51.475Z,64.61
2022-10-19T12:18:51.279Z,64.50
2022-10-19T12:19:53.175Z,65.01
2022-10-19T12:20:50.534Z,64.61
2022-10-19T12:21:57.471Z,64.61
2022-10-19T12:22:51.118Z,64.61
2022-10-19T12:23:48.957Z,64.81
2022-10-19T12:24:49.469Z,65.14
2022-10-19T12:25:49.050Z,64.84
2022-10-19T12:26:52.160Z,65.17
2022-10-19T12:27:50.819Z,65.17
2022-10-19T12:28:54.677Z,65.45
2022-10-19T12:29:51.327Z,65.24
2022-10-19T12:30:48.996Z,64.64
2022-10-19T12:31:50.467Z,65.14
2022-10-19T12:32:53.489Z,64.73
2022-10-19T12:33:51.250Z,64.43
2022-10-19T12:34:49.347Z,65.34
2022-10-19T12:35:50.766Z,64.53
2022-10-19T12:36:49.844Z,64.84
2022-10-19T12:37:49.467Z,64.94
2022-10-19T12:38:50.954Z,64.84
2022-10-19T12:39:50.559Z,65.14
2022-10-19T12:40:51.711Z,65.21
2022-10-19T12:41:50.880Z,64.91
2022-10-19T12:42:55.967Z,65.01
2022-10-19T12:43:49.490Z,64.30
2022-10-19T12:44:53.789Z,64.84
2022-10-19T12:45:51.935Z,65.14
2022-10-19T12:46:52.454Z,65.07
2022-10-19T12:47:49.251Z,65.27
2022-10-19T12:48:49.328Z,65.07
2022-10-19T12:49:49.466Z,65.58
2022-10-19T12:50:51.355Z,64.76
2022-10-19T12:51:48.726Z,65.37
2022-10-19T12:52:49.961Z,65.27
2022-10-19T12:53:53.377Z,65.17
2022-10-19T12:54:48.512Z,65.37
2022-10-19T12:55:50.288Z,65.91
2022-10-19T12:56:50.122Z,65.81
2022-10-19T12:57:55.520Z,65.10
2022-10-19T12:58:50.051Z,65.81
2022-10-19T12:59:49.401Z,66.32
2022-10-19T13:00:49.137Z,66.83
2022-10-19T13:02:11.870Z,67.13
2022-10-19T13:02:49.966Z,66.52
2022-10-19T13:03:48.600Z,66.22
2022-10-19T13:04:48.303Z,66.05
2022-10-19T13:05:49.763Z,66.76
2022-10-19T13:06:48.762Z,66.35
2022-10-19T13:07:48.611Z,67.06
2022-10-19T13:08:49.301Z,66.49
2022-10-19T13:09:49.060Z,66.89